Time;durP1;ratioP1;P1;durP2;ratioP2;P2;SDS_P1;SDS_P2;PMS_P1;PMS_P2;Temp;Humidity;BMP_temperature;BMP_pressure;BME280_temperature;BME280_humidity;BME280_pressure;Samples;Min_cycle;Max_cycle;Signal;HPM_P1;HPM_P2
2024/04/16 00:02:12;;;;;;;4.60;1.55;;;13.20;98.30;;;;;;5397753;26;20438;-90
2024/04/16 00:04:39;;;;;;;7.28;0.93;;;13.00;94.40;;;;;;5418862;26;19999;-90
2024/04/16 00:07:06;;;;;;;8.90;1.05;;;12.80;91.40;;;;;;5400520;26;20011;-91
2024/04/16 00:09:33;;;;;;;1.40;0.60;;;12.50;87.50;;;;;;5396505;26;20003;-90
2024/04/16 00:12:00;;;;;;;2.03;0.90;;;12.10;84.10;;;;;;5421889;26;20032;-91
2024/04/16 00:14:27;;;;;;;1.00;0.68;;;11.70;85.60;;;;;;5397893;26;20000;-90
2024/04/16 00:16:56;;;;;;;0.70;0.50;;;11.40;84.60;;;;;;5416123;26;20073;-91
2024/04/16 00:19:23;;;;;;;6.97;0.82;;;11.00;82.20;;;;;;5387614;26;19996;-91
2024/04/16 00:21:50;;;;;;;0.95;0.80;;;10.80;88.10;;;;;;5404880;26;19999;-92
2024/04/16 00:24:18;;;;;;;1.75;0.85;;;10.60;86.50;;;;;;5420986;26;19995;-93
2024/04/16 00:26:45;;;;;;;6.18;0.70;;;10.40;83.70;;;;;;5397527;26;20000;-91
2024/04/16 00:29:12;;;;;;;4.63;0.60;;;10.30;83.30;;;;;;5402106;26;20003;-92
2024/04/16 00:31:41;;;;;;;2.28;0.52;;;10.20;84.10;;;;;;5419822;26;20462;-91
2024/04/16 00:34:09;;;;;;;16.95;0.70;;;10.10;81.80;;;;;;5412793;26;20010;-90
2024/04/16 00:36:36;;;;;;;8.32;0.60;;;10.10;86.40;;;;;;5421325;26;20000;-91
2024/04/16 00:39:03;;;;;;;1.05;0.40;;;10.00;86.20;;;;;;5387013;26;20390;-92
2024/04/16 00:41:30;;;;;;;1.92;0.60;;;9.90;86.60;;;;;;5398944;26;20035;-90
2024/04/16 00:43:57;;;;;;;2.15;0.60;;;9.90;86.90;;;;;;5410010;26;20007;-92
2024/04/16 00:46:24;;;;;;;6.18;0.60;;;9.90;90.60;;;;;;5422809;26;20044;-91
2024/04/16 00:48:51;;;;;;;3.67;0.50;;;9.80;90.40;;;;;;5402082;26;19995;-90
2024/04/16 00:51:21;;;;;;;1.13;0.63;;;9.80;90.90;;;;;;5411273;26;20012;-92
2024/04/16 00:53:48;;;;;;;3.65;0.85;;;9.70;89.10;;;;;;5419886;26;20053;-92
2024/04/16 00:56:17;;;;;;;3.60;0.80;;;9.70;90.00;;;;;;5398701;26;20077;-91
2024/04/16 00:58:45;;;;;;;0.60;0.52;;;9.60;91.10;;;;;;5390383;26;20068;-90
2024/04/16 01:01:15;;;;;;;1.05;0.88;;;;;;;;;;5442132;26;20069;-90
2024/04/16 01:03:45;;;;;;;3.42;0.70;;;9.50;90.10;;;;;;5415833;26;20015;-90
2024/04/16 01:06:15;;;;;;;5.47;0.60;;;9.50;90.40;;;;;;5413455;26;19995;-89
2024/04/16 01:08:42;;;;;;;2.70;0.50;;;9.40;91.00;;;;;;5414678;26;20008;-91
2024/04/16 01:11:09;;;;;;;1.35;0.65;;;9.40;91.40;;;;;;5396035;26;20011;-90
2024/04/16 01:13:36;;;;;;;2.40;0.50;;;9.30;89.70;;;;;;5420759;26;20065;-91
2024/04/16 01:16:03;;;;;;;1.52;0.60;;;9.30;88.40;;;;;;5415105;26;20000;-90
2024/04/16 01:18:30;;;;;;;0.77;0.50;;;9.30;87.10;;;;;;5386788;26;20325;-88
2024/04/16 01:20:57;;;;;;;1.30;0.57;;;9.20;88.30;;;;;;5408326;26;20458;-89
2024/04/16 01:23:27;;;;;;;1.30;0.70;;;9.20;89.10;;;;;;5420382;26;19996;-89
2024/04/16 01:25:54;;;;;;;3.03;0.80;;;9.10;86.70;;;;;;5403703;26;20007;-90
2024/04/16 01:28:23;;;;;;;2.33;0.85;;;9.10;87.00;;;;;;5397299;26;19999;-91
2024/04/16 01:30:53;;;;;;;16.98;0.77;;;9.10;88.30;;;;;;5406101;26;20007;-90
2024/04/16 01:33:20;;;;;;;2.10;0.65;;;9.10;86.40;;;;;;5413768;26;20007;-90
2024/04/16 01:35:47;;;;;;;3.08;0.70;;;9.10;87.90;;;;;;5419700;26;20011;-89
2024/04/16 01:38:17;;;;;;;3.90;0.70;;;9.00;89.20;;;;;;5412972;26;19999;-89
2024/04/16 01:40:44;;;;;;;1.10;0.70;;;9.00;88.60;;;;;;5394425;26;20008;-90
2024/04/16 01:43:11;;;;;;;0.65;0.60;;;9.00;90.00;;;;;;5422463;26;20000;-91
2024/04/16 01:45:38;;;;;;;0.88;0.70;;;9.00;88.90;;;;;;5413272;26;20015;-89
2024/04/16 01:48:08;;;;;;;7.43;0.68;;;8.90;89.80;;;;;;5413446;26;20073;-91
2024/04/16 01:50:37;;;;;;;2.33;0.60;;;8.90;90.40;;;;;;5416181;26;19996;-89
2024/04/16 01:53:04;;;;;;;0.70;0.70;;;8.90;89.00;;;;;;5413315;26;20008;-90
2024/04/16 01:55:34;;;;;;;1.48;0.50;;;8.80;86.00;;;;;;5419123;26;20073;-90
2024/04/16 01:58:06;;;;;;;2.15;0.85;;;8.80;84.60;;;;;;5419432;26;19996;-89
2024/04/16 02:00:33;;;;;;;1.83;0.50;;;8.80;83.10;;;;;;5419974;26;20440;-88
2024/04/16 02:03:02;;;;;;;2.83;0.65;;;8.80;83.70;;;;;;5398512;26;20010;-90
2024/04/16 02:05:32;;;;;;;0.95;0.70;;;8.80;83.80;;;;;;5397121;26;20324;-91
2024/04/16 02:07:59;;;;;;;1.75;0.70;;;8.70;85.20;;;;;;5411348;26;19995;-92
2024/04/16 02:10:29;;;;;;;1.00;0.60;;;8.70;84.70;;;;;;5398354;26;20048;-91
2024/04/16 02:12:56;;;;;;;0.60;0.60;;;8.70;84.80;;;;;;5413413;26;20404;-90
2024/04/16 02:15:23;;;;;;;3.75;0.90;;;8.80;83.10;;;;;;5413735;26;20074;-92
2024/04/16 02:17:50;;;;;;;3.33;0.68;;;8.70;81.10;;;;;;5401337;26;20046;-91
2024/04/16 02:20:17;;;;;;;1.33;0.75;;;8.70;82.10;;;;;;5419891;26;19999;-92
2024/04/16 02:22:44;;;;;;;7.43;0.93;;;8.80;81.80;;;;;;5410471;26;20007;-91
2024/04/16 02:25:11;;;;;;;2.85;0.85;;;8.70;80.30;;;;;;5409205;26;20015;-91
2024/04/16 02:27:40;;;;;;;0.60;0.60;;;8.70;80.10;;;;;;5392896;26;19995;-91
2024/04/16 02:30:10;;;;;;;1.33;0.70;;;8.70;80.40;;;;;;5419291;26;20028;-92
2024/04/16 02:32:37;;;;;;;1.95;0.75;;;8.70;80.90;;;;;;5383814;26;20012;-89
2024/04/16 02:35:07;;;;;;;2.25;0.70;;;8.70;80.10;;;;;;5418919;26;20015;-90
2024/04/16 02:37:34;;;;;;;0.82;0.60;;;8.60;80.70;;;;;;5419336;26;20006;-92
2024/04/16 02:40:03;;;;;;;2.42;0.85;;;8.60;81.20;;;;;;5393100;26;20665;-91
2024/04/16 02:42:30;;;;;;;0.85;0.60;;;8.60;78.20;;;;;;5415354;26;20068;-91
2024/04/16 02:44:57;;;;;;;5.75;0.82;;;8.70;75.00;;;;;;5393869;26;20000;-91
2024/04/16 02:47:24;;;;;;;2.38;0.98;;;8.60;75.70;;;;;;5384874;26;20343;-92
2024/04/16 02:49:51;;;;;;;2.47;1.10;;;8.60;74.30;;;;;;5388450;26;20012;-91
2024/04/16 02:52:18;;;;;;;9.50;1.23;;;8.60;74.60;;;;;;5390844;26;20007;-91
2024/04/16 02:54:45;;;;;;;4.13;0.68;;;8.60;74.80;;;;;;5405533;26;20010;-92
2024/04/16 02:57:12;;;;;;;1.23;0.90;;;8.60;70.60;;;;;;5416101;26;20434;-90
2024/04/16 02:59:40;;;;;;;5.53;1.05;;;8.60;68.60;;;;;;5404881;26;20084;-90
2024/04/16 03:02:09;;;;;;;1.35;1.00;;;8.60;68.00;;;;;;5419769;26;20050;-91
2024/04/16 03:04:36;;;;;;;1.27;0.80;;;8.60;69.40;;;;;;5412792;26;20011;-90
2024/04/16 03:07:04;;;;;;;0.73;0.60;;;8.60;70.20;;;;;;5415429;26;20011;-90
2024/04/16 03:09:31;;;;;;;2.28;1.02;;;8.60;71.30;;;;;;5382794;26;20004;-89
2024/04/16 03:11:58;;;;;;;1.40;0.90;;;8.60;71.30;;;;;;5397792;26;19999;-89
2024/04/16 03:14:25;;;;;;;2.63;0.80;;;8.60;72.30;;;;;;5394765;26;20512;-89
2024/04/16 03:16:55;;;;;;;0.73;0.55;;;8.60;72.90;;;;;;5389880;26;20472;-90
2024/04/16 03:19:22;;;;;;;3.38;0.70;;;8.60;74.10;;;;;;5418431;26;19996;-91
2024/04/16 03:21:51;;;;;;;0.80;0.80;;;8.60;74.70;;;;;;5418530;26;20012;-89
2024/04/16 03:24:20;;;;;;;0.70;0.70;;;8.60;75.80;;;;;;5417347;26;20011;-91
2024/04/16 03:26:48;;;;;;;1.70;0.82;;;8.60;77.50;;;;;;5385274;26;20046;-91
2024/04/16 03:29:15;;;;;;;3.78;0.98;;;8.60;78.70;;;;;;5383943;26;20012;-89
2024/04/16 03:31:43;;;;;;;2.40;0.80;;;8.60;81.10;;;;;;5387046;26;20043;-90
2024/04/16 03:34:13;;;;;;;1.85;0.80;;;8.60;82.10;;;;;;5410263;26;20003;-89
2024/04/16 03:36:40;;;;;;;2.25;0.77;;;8.50;82.90;;;;;;5397042;26;19996;-95
2024/04/16 03:39:08;;;;;;;1.15;0.80;;;8.60;83.20;;;;;;5404751;26;20011;-96
2024/04/16 03:41:35;;;;;;;2.47;0.95;;;8.50;85.10;;;;;;5424589;26;19991;-95
2024/04/16 03:44:03;;;;;;;2.40;0.90;;;8.50;85.80;;;;;;5425672;26;20003;-96
2024/04/16 03:46:30;;;;;;;3.10;0.85;;;8.40;84.90;;;;;;5433257;26;20007;-96
2024/04/16 03:49:00;;;;;;;5.82;0.90;;;8.40;85.10;;;;;;5404984;26;20073;-91
2024/04/16 03:51:27;;;;;;;1.05;0.70;;;8.40;85.30;;;;;;5400267;26;20015;-91
2024/04/16 03:53:56;;;;;;;3.90;0.90;;;8.30;79.10;;;;;;5413925;26;20457;-92
2024/04/16 03:56:23;;;;;;;2.17;0.90;;;8.20;78.10;;;;;;5422850;26;20007;-91
2024/04/16 04:01:35;;;;;;;0.93;0.82;;;8.00;77.40;;;;;;5421645;26;20007;-92
2024/04/16 04:04:03;;;;;;;1.90;1.00;;;8.00;76.10;;;;;;5420221;26;20007;-92
2024/04/16 04:06:30;;;;;;;3.10;0.93;;;7.90;79.00;;;;;;5414359;26;19996;-92
2024/04/16 04:08:57;;;;;;;3.33;0.80;;;7.80;78.80;;;;;;5390740;26;20011;-93
2024/04/16 04:11:26;;;;;;;2.10;1.02;;;7.80;79.70;;;;;;5409038;26;20004;-92
2024/04/16 04:13:53;;;;;;;1.13;0.70;;;7.70;80.90;;;;;;5416051;26;20041;-93
2024/04/16 04:16:20;;;;;;;1.35;1.00;;;7.60;80.80;;;;;;5403920;26;20001;-92
2024/04/16 04:18:48;;;;;;;1.63;0.90;;;7.60;81.50;;;;;;5387767;26;19996;-92
2024/04/16 04:21:15;;;;;;;14.30;6.07;;;7.60;81.20;;;;;;5395345;26;20003;-93
2024/04/16 04:23:44;;;;;;;4.28;1.50;;;7.50;82.80;;;;;;5419266;26;20027;-92
2024/04/16 04:26:11;;;;;;;4.45;1.58;;;7.40;82.70;;;;;;5419658;26;20008;-92
2024/04/16 04:28:38;;;;;;;12.98;6.88;;;7.40;85.40;;;;;;5419872;26;20450;-93
2024/04/16 04:31:19;;;;;;;3.42;2.20;;;7.30;86.00;;;;;;5413460;26;20000;-92
2024/04/16 04:33:46;;;;;;;3.03;1.20;;;7.30;87.40;;;;;;5384491;26;20046;-91
2024/04/16 04:36:14;;;;;;;1.77;1.13;;;7.30;87.90;;;;;;5433057;26;20023;-92
2024/04/16 04:38:45;;;;;;;1.20;0.90;;;7.30;88.20;;;;;;5385335;26;20000;-92
2024/04/16 04:41:12;;;;;;;1.80;1.10;;;7.20;88.80;;;;;;5407736;26;19999;-92
2024/04/16 04:43:39;;;;;;;3.67;1.23;;;7.20;90.00;;;;;;5419080;26;20007;-93
2024/04/16 04:46:06;;;;;;;5.18;1.17;;;7.20;89.30;;;;;;5419456;26;20085;-92
2024/04/16 04:48:34;;;;;;;4.30;2.00;;;7.20;89.80;;;;;;5418513;26;20008;-92
2024/04/16 04:51:01;;;;;;;1.60;1.00;;;7.20;90.00;;;;;;5418879;26;19996;-91
2024/04/16 04:53:30;;;;;;;1.17;0.90;;;7.20;89.20;;;;;;5409323;26;20015;-91
2024/04/16 04:55:57;;;;;;;2.35;1.00;;;7.20;88.90;;;;;;5383297;26;19996;-93
2024/04/16 04:58:24;;;;;;;2.03;0.93;;;7.20;89.70;;;;;;5386551;26;20012;-92
2024/04/16 05:00:51;;;;;;;1.77;0.80;;;7.20;88.50;;;;;;5411588;26;20007;-92
2024/04/16 05:03:21;;;;;;;2.05;1.23;;;7.20;88.10;;;;;;5386843;26;20000;-90
2024/04/16 05:05:48;;;;;;;1.80;0.80;;;7.20;88.20;;;;;;5383986;26;20006;-92
2024/04/16 05:08:15;;;;;;;1.80;0.88;;;7.20;90.00;;;;;;5385852;26;20008;-92
2024/04/16 05:10:48;;;;;;;4.57;1.40;;;7.10;88.20;;;;;;5393963;26;20377;-93
2024/04/16 05:13:15;;;;;;;4.32;1.40;;;7.10;88.40;;;;;;5404322;26;20015;-93
2024/04/16 05:15:44;;;;;;;1.52;1.10;;;7.10;89.40;;;;;;5390240;26;19997;-93
2024/04/16 05:18:11;;;;;;;3.58;0.98;;;7.20;89.30;;;;;;5409831;26;20461;-92
2024/04/16 05:20:39;;;;;;;2.65;1.10;;;7.20;89.20;;;;;;5419236;26;19999;-91
2024/04/16 05:23:08;;;;;;;1.77;1.08;;;7.20;90.10;;;;;;5398805;26;20008;-92
2024/04/16 05:25:35;;;;;;;1.60;1.08;;;7.20;90.40;;;;;;5416242;26;20322;-92
2024/04/16 05:28:09;;;;;;;2.72;1.48;;;7.20;89.20;;;;;;5388634;26;20000;-92
2024/04/16 05:30:39;;;;;;;7.90;3.38;;;7.20;91.10;;;;;;5418761;26;20006;-92
2024/04/16 05:33:06;;;;;;;3.30;1.80;;;7.30;92.20;;;;;;5404499;26;20534;-93
2024/04/16 05:35:33;;;;;;;9.00;5.15;;;7.30;91.20;;;;;;5419128;26;20000;-93
2024/04/16 05:38:02;;;;;;;6.05;3.10;;;7.30;90.80;;;;;;5418765;26;19995;-93
2024/04/16 05:40:31;;;;;;;2.70;1.40;;;7.20;90.80;;;;;;5415092;26;20076;-92
2024/04/16 05:43:00;;;;;;;3.13;1.40;;;7.20;91.00;;;;;;5414579;26;20015;-92
2024/04/16 05:45:27;;;;;;;4.57;1.38;;;7.30;91.60;;;;;;5417588;26;20035;-93
2024/04/16 05:47:56;;;;;;;2.00;1.20;;;7.30;91.60;;;;;;5418692;26;20450;-93
2024/04/16 05:50:26;;;;;;;3.38;1.02;;;7.40;91.70;;;;;;5407136;26;20010;-95
2024/04/16 05:52:54;;;;;;;2.75;1.13;;;7.40;90.80;;;;;;5410879;26;20473;-91
2024/04/16 05:55:21;;;;;;;3.10;1.27;;;7.30;91.20;;;;;;5401047;26;20008;-91
2024/04/16 05:57:48;;;;;;;2.58;1.00;;;7.30;90.20;;;;;;5383668;26;20001;-91
2024/04/16 06:00:21;;;;;;;2.95;1.10;;;7.30;90.60;;;;;;5383082;26;20004;-91
2024/04/16 06:02:48;;;;;;;1.73;1.08;;;7.30;90.50;;;;;;5438110;26;20011;-91
2024/04/16 06:05:15;;;;;;;2.85;2.13;;;7.30;91.20;;;;;;5412287;26;20033;-91
2024/04/16 06:07:42;;;;;;;4.70;1.52;;;7.30;90.00;;;;;;5417055;26;20442;-91
2024/04/16 06:10:09;;;;;;;1.63;1.00;;;7.30;90.90;;;;;;5418251;26;19996;-91
2024/04/16 06:12:38;;;;;;;3.28;1.05;;;7.30;90.60;;;;;;5411832;26;19996;-95
2024/04/16 06:15:06;;;;;;;1.83;1.13;;;7.30;90.80;;;;;;5409360;26;20003;-91
2024/04/16 06:17:33;;;;;;;2.58;1.20;;;7.30;90.20;;;;;;5416106;26;20003;-91
2024/04/16 06:20:01;;;;;;;2.30;1.38;;;7.30;89.80;;;;;;5418227;26;20036;-92
2024/04/16 06:22:28;;;;;;;2.72;1.20;;;7.30;90.20;;;;;;5418357;26;20019;-91
2024/04/16 06:24:55;;;;;;;1.67;1.25;;;7.40;88.30;;;;;;5418088;26;20142;-91
2024/04/16 06:27:22;;;;;;;3.80;1.30;;;7.50;88.80;;;;;;5420089;26;20000;-92
2024/04/16 06:29:51;;;;;;;2.00;1.00;;;7.50;87.60;;;;;;5394806;26;20069;-91
2024/04/16 06:32:18;;;;;;;2.42;1.35;;;7.50;86.90;;;;;;5408039;26;19995;-91
2024/04/16 06:34:46;;;;;;;2.50;1.15;;;7.60;85.20;;;;;;5418123;26;20327;-91
2024/04/16 06:37:13;;;;;;;1.13;1.00;;;7.60;84.50;;;;;;5405021;26;19999;-91
2024/04/16 06:39:40;;;;;;;3.97;0.93;;;7.60;83.40;;;;;;5417490;26;20000;-91
2024/04/16 06:42:07;;;;;;;1.85;1.08;;;7.70;82.10;;;;;;5410478;26;20035;-90
2024/04/16 06:44:36;;;;;;;2.65;1.00;;;7.70;80.90;;;;;;5396111;26;20000;-90
2024/04/16 06:47:03;;;;;;;2.97;0.90;;;7.70;79.30;;;;;;5417999;26;20422;-90
2024/04/16 06:49:37;;;;;;;2.80;1.70;;;7.70;79.60;;;;;;5396975;26;20004;-90
2024/04/16 06:52:05;;;;;;;3.58;2.38;;;7.70;80.30;;;;;;5412152;26;20007;-91
2024/04/16 06:54:32;;;;;;;2.42;1.70;;;7.80;78.90;;;;;;5399333;26;20080;-90
2024/04/16 06:56:59;;;;;;;4.30;1.38;;;7.80;77.20;;;;;;5397498;26;20407;-90
2024/04/16 06:59:26;;;;;;;5.68;1.27;;;7.80;76.90;;;;;;5417588;26;20012;-90
2024/04/16 07:01:55;;;;;;;4.97;1.38;;;7.80;77.50;;;;;;5395943;26;19995;-90
2024/04/16 07:04:22;;;;;;;1.75;1.13;;;7.90;79.60;;;;;;5417705;26;19996;-90
2024/04/16 07:06:50;;;;;;;4.13;1.38;;;8.00;81.10;;;;;;5400604;26;20000;-91
2024/04/16 07:09:17;;;;;;;2.72;1.00;;;8.20;79.20;;;;;;5381940;26;20453;-93
2024/04/16 07:11:44;;;;;;;4.60;1.30;;;8.40;77.90;;;;;;5383577;26;20000;-93
2024/04/16 07:14:11;;;;;;;2.85;1.25;;;8.50;76.20;;;;;;5412640;26;19995;-92
2024/04/16 07:16:38;;;;;;;2.72;1.13;;;8.60;73.80;;;;;;5383247;26;20014;-93
2024/04/16 07:19:08;;;;;;;3.20;1.00;;;8.50;73.40;;;;;;5416999;26;20102;-92
2024/04/16 07:21:35;;;;;;;3.10;1.20;;;8.50;73.80;;;;;;5399752;26;20017;-93
2024/04/16 07:24:02;;;;;;;2.30;0.98;;;8.50;73.90;;;;;;5408320;26;19999;-93
2024/04/16 07:26:54;;;;;;;4.25;1.27;;;8.50;73.60;;;;;;5419204;26;19999;-92
2024/04/16 07:29:21;;;;;;;2.92;1.55;;;8.50;74.70;;;;;;5381664;26;20312;-92
2024/04/16 07:31:48;;;;;;;4.05;1.13;;;8.50;74.10;;;;;;5394376;26;20001;-92
2024/04/16 07:34:19;;;;;;;6.13;1.35;;;8.50;73.70;;;;;;5391626;26;19996;-93
2024/04/16 07:36:46;;;;;;;3.22;1.25;;;8.40;74.50;;;;;;5413001;26;20026;-92
2024/04/16 07:39:14;;;;;;;4.85;1.20;;;8.30;75.00;;;;;;5401279;26;20012;-92
2024/04/16 07:41:41;;;;;;;5.38;1.92;;;8.30;75.60;;;;;;5396270;26;20006;-92
2024/04/16 07:44:08;;;;;;;3.00;1.40;;;8.30;76.70;;;;;;5407404;26;20169;-93
2024/04/16 07:46:35;;;;;;;1.65;0.93;;;8.30;77.10;;;;;;5386420;26;19996;-92
2024/04/16 07:49:02;;;;;;;3.72;1.30;;;8.40;77.30;;;;;;5402422;26;20012;-92
2024/04/16 07:51:29;;;;;;;2.38;1.42;;;8.50;75.80;;;;;;5408811;26;20000;-93
2024/04/16 07:53:56;;;;;;;2.10;1.65;;;8.50;75.30;;;;;;5399648;26;20000;-93
2024/04/16 07:56:23;;;;;;;1.65;1.20;;;8.60;75.20;;;;;;5416782;26;19995;-92
2024/04/16 07:58:53;;;;;;;1.42;1.10;;;8.60;75.90;;;;;;5411832;26;20351;-92
2024/04/16 08:01:22;;;;;;;5.78;1.58;;;8.80;73.90;;;;;;5406551;26;20064;-93
2024/04/16 08:03:49;;;;;;;3.90;1.20;;;8.80;72.30;;;;;;5405634;26;19996;-93
2024/04/16 08:06:16;;;;;;;3.22;1.40;;;8.60;71.30;;;;;;5381514;26;20016;-93
2024/04/16 08:08:46;;;;;;;10.20;1.48;;;8.70;72.60;;;;;;5394518;26;20069;-93
2024/04/16 08:11:14;;;;;;;6.70;1.30;;;8.70;71.70;;;;;;5396328;26;20463;-93
2024/04/16 08:13:41;;;;;;;5.32;1.30;;;8.70;71.40;;;;;;5416516;26;19999;-93
2024/04/16 08:16:11;;;;;;;2.20;1.10;;;8.60;71.00;;;;;;5416243;26;20014;-92
2024/04/16 08:18:40;;;;;;;4.80;1.10;;;8.70;72.70;;;;;;5380689;26;20000;-93
2024/04/16 08:21:07;;;;;;;4.97;1.80;;;8.70;72.50;;;;;;5387620;26;20000;-93
2024/04/16 08:23:34;;;;;;;2.33;1.20;;;8.70;73.90;;;;;;5417603;26;19996;-94
2024/04/16 08:26:04;;;;;;;5.32;1.13;;;;;;;;;;5403685;26;20074;-92
2024/04/16 08:28:38;;;;;;;2.17;0.93;;;8.70;69.50;;;;;;5380635;26;20015;-92
2024/04/16 08:31:05;;;;;;;5.35;1.10;;;8.70;70.00;;;;;;5395683;26;19997;-93
2024/04/16 08:33:32;;;;;;;3.10;1.52;;;8.70;69.70;;;;;;5413624;26;20000;-93
2024/04/16 08:36:00;;;;;;;3.72;1.10;;;8.70;69.30;;;;;;5384207;26;19996;-92
2024/04/16 08:38:29;;;;;;;3.08;0.80;;;8.70;69.70;;;;;;5388803;26;20034;-92
2024/04/16 08:40:56;;;;;;;3.70;1.65;;;8.70;69.20;;;;;;5413418;26;20061;-93
2024/04/16 08:43:25;;;;;;;4.72;1.33;;;8.70;70.20;;;;;;5419522;26;20072;-92
2024/04/16 08:45:53;;;;;;;3.83;1.38;;;8.70;69.90;;;;;;5419515;26;19995;-93
2024/04/16 08:48:21;;;;;;;3.88;1.35;;;8.70;70.50;;;;;;5397455;26;20457;-90
2024/04/16 08:50:53;;;;;;;4.63;1.60;;;8.80;70.20;;;;;;5412092;26;20006;-91
2024/04/16 08:53:22;;;;;;;4.47;1.20;;;8.90;69.60;;;;;;5419090;26;20064;-90
2024/04/16 08:55:49;;;;;;;3.55;1.23;;;8.90;69.10;;;;;;5419665;26;20072;-90
2024/04/16 08:58:22;;;;;;;3.38;1.30;;;9.10;70.00;;;;;;5419318;26;20010;-90
2024/04/16 09:00:50;;;;;;;4.07;1.13;;;9.20;69.00;;;;;;5399267;26;19996;-90
2024/04/16 09:03:18;;;;;;;5.70;1.10;;;9.20;67.50;;;;;;5413178;26;20004;-90
2024/04/16 09:05:46;;;;;;;1.63;1.00;;;9.30;67.40;;;;;;5413474;26;20007;-90
2024/04/16 09:08:19;;;;;;;3.30;0.90;;;9.40;66.90;;;;;;5404834;26;20051;-91
2024/04/16 09:10:47;;;;;;;2.80;1.13;;;9.40;65.80;;;;;;5420812;26;20068;-91
2024/04/16 09:13:15;;;;;;;4.70;1.23;;;9.40;64.10;;;;;;5412501;26;20011;-90
2024/04/16 09:15:43;;;;;;;3.75;1.15;;;9.40;63.50;;;;;;5416781;26;20011;-91
2024/04/16 09:18:10;;;;;;;3.95;2.33;;;9.50;63.50;;;;;;5406368;26;20000;-90
2024/04/16 09:20:37;;;;;;;4.32;1.55;;;9.40;63.00;;;;;;5406104;26;20014;-91
2024/04/16 09:23:04;;;;;;;3.10;1.00;;;9.50;63.70;;;;;;5412435;26;19999;-90
2024/04/16 09:25:38;;;;;;;2.08;1.10;;;9.60;63.80;;;;;;5392554;26;20007;-91
2024/04/16 09:28:06;;;;;;;3.33;1.30;;;9.80;63.20;;;;;;5413279;26;20004;-90
2024/04/16 09:30:35;;;;;;;2.45;0.88;;;9.80;62.90;;;;;;5412796;26;20073;-91
2024/04/16 09:33:04;;;;;;;1.52;0.90;;;9.90;61.70;;;;;;5412832;26;19996;-91
2024/04/16 09:35:41;;;;;;;1.85;0.75;;;10.00;60.10;;;;;;5384930;26;20011;-90
2024/04/16 09:38:09;;;;;;;3.92;1.23;;;10.00;60.30;;;;;;5414437;26;20011;-90
2024/04/16 09:40:36;;;;;;;3.58;1.10;;;10.20;59.70;;;;;;5396432;26;19999;-90
2024/04/16 09:43:05;;;;;;;4.95;1.33;;;10.20;59.60;;;;;;5391946;26;20028;-90
2024/04/16 09:45:35;;;;;;;4.00;0.95;;;10.20;60.10;;;;;;5412577;26;20001;-91
2024/04/16 09:48:03;;;;;;;3.85;1.10;;;10.20;58.40;;;;;;5412740;26;20019;-90
2024/04/16 09:50:35;;;;;;;7.28;1.90;;;10.30;59.60;;;;;;5412545;26;20861;-91
2024/04/16 09:53:22;;;;;;;4.57;1.27;;;10.40;62.00;;;;;;5385611;26;20065;-90
2024/04/16 09:55:50;;;;;;;22.33;12.68;;;10.50;59.30;;;;;;5412680;26;20014;-90
2024/04/16 09:58:18;;;;;;;4.05;2.10;;;10.60;58.80;;;;;;5399229;26;20008;-90
2024/04/16 10:00:46;;;;;;;6.38;2.85;;;10.60;57.80;;;;;;5394443;26;20014;-90
2024/04/16 10:03:15;;;;;;;2.88;1.60;;;10.50;57.90;;;;;;5412797;26;20457;-90
2024/04/16 10:05:42;;;;;;;2.97;1.60;;;10.40;57.30;;;;;;5412261;26;20004;-90
2024/04/16 10:08:10;;;;;;;2.88;1.10;;;10.30;57.60;;;;;;5388233;26;20073;-90
2024/04/16 10:10:44;;;;;;;4.85;0.82;;;10.20;57.40;;;;;;5418676;26;19999;-91
2024/04/16 10:13:14;;;;;;;2.95;0.90;;;10.10;57.70;;;;;;5414423;26;20006;-90
2024/04/16 10:15:43;;;;;;;3.17;0.90;;;10.00;58.10;;;;;;5402839;26;20007;-90
2024/04/16 10:18:11;;;;;;;2.97;1.17;;;10.00;58.90;;;;;;5383262;26;20000;-90
2024/04/16 10:20:49;;;;;;;4.10;1.08;;;9.90;59.80;;;;;;5403330;26;20032;-90
2024/04/16 10:23:16;;;;;;;0.90;0.75;;;9.80;60.20;;;;;;5383189;26;19996;-90
2024/04/16 10:25:53;;;;;;;5.20;0.85;;;9.70;60.30;;;;;;5416580;26;19999;-90
2024/04/16 10:28:23;;;;;;;1.58;0.90;;;9.70;61.00;;;;;;5411979;26;20083;-90
2024/04/16 10:31:08;;;;;;;3.38;0.98;;;9.70;62.60;;;;;;5413268;26;20430;-91
2024/04/16 10:33:38;;;;;;;1.90;1.20;;;9.70;61.70;;;;;;5413313;26;20012;-90
2024/04/16 10:36:07;;;;;;;4.28;1.40;;;9.70;61.40;;;;;;5409235;26;20408;-90
2024/04/16 10:38:43;;;;;;;3.80;1.40;;;9.70;61.30;;;;;;5390102;26;20015;-95
2024/04/16 10:41:15;;;;;;;3.60;1.70;;;9.70;61.30;;;;;;5413108;26;20367;-90
2024/04/16 10:43:44;;;;;;;4.53;1.40;;;9.70;62.00;;;;;;5413449;26;20001;-90
2024/04/16 10:46:14;;;;;;;5.32;1.88;;;9.70;61.70;;;;;;5411095;26;20022;-96
2024/04/16 10:48:43;;;;;;;3.75;1.70;;;9.60;61.80;;;;;;5416713;26;20070;-89
2024/04/16 10:51:16;;;;;;;3.13;1.60;;;9.60;62.60;;;;;;5418945;26;20015;-88
2024/04/16 10:54:05;;;;;;;2.53;1.13;;;9.60;62.60;;;;;;5420976;26;20010;-96
2024/04/16 10:56:32;;;;;;;4.93;1.58;;;9.70;62.80;;;;;;5400621;26;20040;-93
2024/04/16 10:59:12;;;;;;;4.22;1.23;;;9.70;62.50;;;;;;5417584;26;20014;-91
2024/04/16 11:01:49;;;;;;;5.63;1.30;;;9.80;62.00;;;;;;5413919;26;20080;-93
2024/04/16 11:04:17;;;;;;;3.90;1.48;;;9.80;62.30;;;;;;5444239;26;20015;-94
2024/04/16 11:06:47;;;;;;;5.78;1.40;;;10.00;61.20;;;;;;5421711;26;20003;-95
2024/04/16 11:09:19;;;;;;;3.13;1.30;;;10.00;60.40;;;;;;5415527;26;20012;-94
2024/04/16 11:11:48;;;;;;;3.20;1.52;;;10.10;60.80;;;;;;5419007;26;20075;-94
2024/04/16 11:14:16;;;;;;;5.72;1.48;;;10.20;59.90;;;;;;5409679;26;20015;-95
2024/04/16 11:16:44;;;;;;;3.88;0.95;;;10.40;59.80;;;;;;5409322;26;19996;-94
2024/04/16 11:19:12;;;;;;;2.85;0.93;;;10.50;58.60;;;;;;5406409;26;20377;-93
2024/04/16 11:21:40;;;;;;;4.50;1.20;;;10.50;59.40;;;;;;5406835;26;20015;-94
2024/04/16 11:24:08;;;;;;;2.35;1.35;;;10.60;58.00;;;;;;5416991;26;20012;-95
2024/04/16 11:26:37;;;;;;;2.45;1.23;;;10.60;59.00;;;;;;5393540;26;20011;-94
2024/04/16 11:29:05;;;;;;;6.88;1.20;;;10.60;58.40;;;;;;5422688;26;19999;-95
2024/04/16 11:31:35;;;;;;;1.90;0.80;;;10.60;58.30;;;;;;5407922;26;20050;-94
2024/04/16 11:34:03;;;;;;;5.38;1.20;;;10.70;59.10;;;;;;5415464;26;20012;-93
2024/04/16 11:36:31;;;;;;;3.00;1.10;;;10.70;58.70;;;;;;5393426;26;20048;-91
2024/04/16 11:38:59;;;;;;;2.22;0.80;;;10.80;58.00;;;;;;5395550;26;20004;-91
2024/04/16 11:41:29;;;;;;;2.13;1.40;;;10.80;57.60;;;;;;5416701;26;19999;-91
2024/04/16 11:43:56;;;;;;;7.07;1.13;;;10.70;58.00;;;;;;5416166;26;20007;-95
2024/04/16 11:46:24;;;;;;;2.30;0.90;;;10.70;57.70;;;;;;5419527;26;20456;-95
2024/04/16 11:48:51;;;;;;;6.63;1.13;;;10.60;57.80;;;;;;5414525;26;20000;-93
2024/04/16 11:51:20;;;;;;;1.75;0.93;;;10.50;57.90;;;;;;5403855;26;20016;-94
2024/04/16 11:53:47;;;;;;;1.83;1.00;;;10.50;57.90;;;;;;5416510;26;20023;-95
2024/04/16 11:56:14;;;;;;;2.20;0.80;;;10.40;58.10;;;;;;5395144;26;20073;-94
2024/04/16 11:58:44;;;;;;;5.43;1.08;;;10.40;59.00;;;;;;5384908;26;20021;-94
2024/04/16 12:01:14;;;;;;;4.80;0.98;;;10.30;58.90;;;;;;5394128;26;19995;-88
2024/04/16 12:03:41;;;;;;;3.20;1.00;;;10.40;59.50;;;;;;5388478;26;20522;-88
2024/04/16 12:06:08;;;;;;;3.30;0.70;;;10.50;58.80;;;;;;5382247;26;20025;-90
2024/04/16 12:08:35;;;;;;;2.92;1.45;;;10.50;59.20;;;;;;5384673;26;20003;-88
2024/04/16 12:11:03;;;;;;;3.28;1.27;;;10.70;59.20;;;;;;5384633;26;20326;-89
2024/04/16 12:13:31;;;;;;;2.88;0.93;;;10.80;58.70;;;;;;5407500;26;20002;-91
2024/04/16 12:15:58;;;;;;;2.20;1.02;;;10.80;58.00;;;;;;5413800;26;20011;-92
2024/04/16 12:18:25;;;;;;;3.13;1.27;;;10.80;58.10;;;;;;5399669;26;20007;-92
2024/04/16 12:20:52;;;;;;;1.80;1.02;;;10.70;58.40;;;;;;5417960;26;20434;-91
2024/04/16 12:23:19;;;;;;;2.50;1.08;;;10.70;58.40;;;;;;5403698;26;20014;-91
2024/04/16 12:25:46;;;;;;;1.38;0.60;;;10.70;58.90;;;;;;5386885;26;20073;-92
2024/04/16 12:28:21;;;;;;;3.13;1.10;;;10.70;59.10;;;;;;5395924;26;20068;-92
2024/04/16 12:30:57;;;;;;;2.85;1.20;;;10.60;59.40;;;;;;5417211;26;20077;-92
2024/04/16 12:33:24;;;;;;;4.70;1.30;;;10.60;59.80;;;;;;5401266;26;19996;-92
2024/04/16 12:35:51;;;;;;;4.57;1.15;;;10.60;60.30;;;;;;5412439;26;19999;-92
2024/04/16 12:38:18;;;;;;;3.22;0.93;;;10.60;61.60;;;;;;5398204;26;20450;-95
2024/04/16 12:40:46;;;;;;;4.15;1.30;;;10.60;61.60;;;;;;5400036;26;20011;-96
2024/04/16 12:43:14;;;;;;;3.75;1.20;;;10.60;61.20;;;;;;5417201;26;20000;-95
2024/04/16 12:45:41;;;;;;;2.38;1.00;;;10.60;61.30;;;;;;5419396;26;20023;-96
2024/04/16 12:48:09;;;;;;;5.22;1.73;;;10.70;60.30;;;;;;5405459;26;20438;-95
2024/04/16 12:50:36;;;;;;;2.83;1.02;;;10.70;59.40;;;;;;5385925;26;20001;-95
2024/04/16 12:53:03;;;;;;;2.55;1.00;;;10.70;59.90;;;;;;5392300;26;20066;-95
2024/04/16 12:55:30;;;;;;;5.97;2.13;;;10.70;59.30;;;;;;5388844;26;20008;-94
2024/04/16 12:57:57;;;;;;;3.25;1.80;;;10.70;59.70;;;;;;5419335;26;20019;-95
2024/04/16 13:00:25;;;;;;;7.65;1.33;;;10.70;60.00;;;;;;5420858;26;20000;-96
2024/04/16 13:02:54;;;;;;;2.08;1.85;;;10.70;60.40;;;;;;5414792;26;20454;-94
2024/04/16 13:05:22;;;;;;;2.13;1.20;;;10.70;61.20;;;;;;5383509;26;20032;-90